Time;durP1;ratioP1;P1;durP2;ratioP2;P2;SDS_P1;SDS_P2;PMS_P1;PMS_P2;Temp;Humidity;BMP_temperature;BMP_pressure;BME280_temperature;BME280_humidity;BME280_pressure;Samples;Min_cycle;Max_cycle;Signal;HPM_P1;HPM_P2
2022/05/22 00:00:02;;;;;;;18.08;3.33;;;;;;;10.36;100.00;155127.50;4865906;29;20032;-75
2022/05/22 00:02:40;;;;;;;17.90;3.22;;;;;;;10.33;100.00;155121.09;4865206;29;20054;-74
2022/05/22 00:05:07;;;;;;;15.90;3.45;;;;;;;10.36;100.00;155128.81;4872153;29;20036;-76
2022/05/22 00:07:33;;;;;;;17.85;3.58;;;;;;;10.38;100.00;155132.63;4856144;29;20094;-76
2022/05/22 00:10:01;;;;;;;10.30;2.97;;;;;;;10.22;100.00;155094.09;4876409;29;20172;-76
2022/05/22 00:12:27;;;;;;;16.45;3.58;;;;;;;10.13;100.00;155071.00;4851340;29;20077;-76
2022/05/22 00:14:52;;;;;;;13.75;3.17;;;;;;;9.98;100.00;155033.81;4858978;29;20048;-76
2022/05/22 00:17:18;;;;;;;14.02;2.83;;;;;;;9.88;100.00;155009.44;4855023;29;20037;-75
2022/05/22 00:19:44;;;;;;;15.80;3.30;;;;;;;9.78;100.00;154983.81;4846695;29;20049;-76
2022/05/22 00:22:10;;;;;;;15.52;3.45;;;;;;;9.73;100.00;154970.97;4841345;29;20045;-74
2022/05/22 00:24:36;;;;;;;17.85;3.40;;;;;;;9.68;100.00;154958.16;4853303;29;20451;-75
2022/05/22 00:27:02;;;;;;;13.73;3.08;;;;;;;9.62;100.00;154942.78;4837046;29;20566;-72
2022/05/22 00:29:30;;;;;;;14.73;3.28;;;;;;;9.54;100.00;154924.81;4855545;29;20522;-74
2022/05/22 00:31:56;;;;;;;14.43;3.28;;;;;;;9.44;100.00;154899.19;4869303;29;20064;-75
2022/05/22 00:34:22;;;;;;;14.20;3.25;;;;;;;9.42;100.00;154894.06;4855100;29;20076;-76
2022/05/22 00:36:48;;;;;;;17.27;4.20;;;;;;;9.37;100.00;154879.97;4836814;29;22020;-76
2022/05/22 00:39:13;;;;;;;16.92;3.70;;;;;;;9.33;100.00;154871.00;4862837;29;20562;-76
2022/05/22 00:41:40;;;;;;;18.25;4.13;;;;;;;9.33;100.00;154871.00;4867274;29;20040;-74
2022/05/22 00:44:07;;;;;;;22.13;4.05;;;;;;;9.47;100.00;154906.84;4863686;29;20077;-74
2022/05/22 00:46:33;;;;;;;19.35;3.72;;;;;;;9.29;100.00;154860.75;4873472;29;20135;-77
2022/05/22 00:49:21;;;;;;;21.15;4.07;;;;;;;9.32;100.00;154868.41;4865039;29;20037;-75
2022/05/22 00:52:25;;;;;;;15.52;3.55;;;;;;;9.29;100.00;154862.03;4856089;29;20048;-76
2022/05/22 00:55:02;;;;;;;23.23;4.80;;;;;;;9.17;100.00;154831.22;4808450;29;20080;-75
2022/05/22 00:57:35;;;;;;;12.85;3.35;;;;;;;9.10;100.00;154814.59;4868385;29;20063;-75
2022/05/22 01:00:07;;;;;;;20.00;5.10;;;;;;;9.21;100.00;154840.22;4855391;29;20041;-77
2022/05/22 01:03:26;;;;;;;15.38;4.10;;;;;;;9.15;100.00;154827.44;4837877;29;20041;-74
2022/05/22 01:05:19;;;;;;;12.60;4.00;;;;;;;9.18;100.00;154833.81;4865571;29;20033;-75
2022/05/22 01:07:46;;;;;;;15.30;4.43;;;;;;;9.05;100.00;154800.50;4856752;29;20037;-76
2022/05/22 01:10:13;;;;;;;15.13;3.92;;;;;;;9.00;100.00;154787.66;4844623;29;20491;-75
2022/05/22 01:12:42;;;;;;;15.65;4.28;;;;;;;9.04;100.00;154799.22;4855466;29;20772;-77
2022/05/22 01:15:10;;;;;;;19.58;5.28;;;;;;;8.99;100.00;154785.13;4840764;29;20048;-77
2022/05/22 01:17:45;;;;;;;16.42;4.13;;;;;;;8.97;100.00;154781.28;4850603;29;20128;-77
2022/05/22 01:20:12;;;;;;;19.90;4.60;;;;;;;8.85;100.00;154751.75;4873032;29;20055;-76
2022/05/22 01:22:38;;;;;;;13.27;4.20;;;;;;;8.82;100.00;154742.84;4837767;29;20052;-78
2022/05/22 01:25:05;;;;;;;17.70;4.30;;;;;;;8.81;100.00;154740.25;4859507;29;20032;-77
2022/05/22 01:27:33;;;;;;;15.70;4.18;;;;;;;8.69;100.00;154712.06;4872127;29;20511;-77
2022/05/22 01:30:21;;;;;;;19.70;4.38;;;;;;;8.63;100.00;154696.69;4858585;29;20731;-76
2022/05/22 01:32:55;;;;;;;16.15;4.25;;;;;;;8.60;100.00;154689.00;4866875;29;20032;-76
2022/05/22 01:35:25;;;;;;;25.05;5.30;;;;;;;8.57;100.00;154682.59;4861610;29;20517;-78
2022/05/22 01:37:52;;;;;;;19.10;5.05;;;;;;;8.56;100.00;154680.03;4855460;29;20135;-77
2022/05/22 01:40:19;;;;;;;15.57;5.00;;;;;;;8.54;100.00;154674.91;4871448;29;20101;-78
2022/05/22 01:42:49;;;;;;;18.83;4.97;;;;;;;8.52;100.00;154668.50;4874835;29;20097;-77
2022/05/22 01:45:20;;;;;;;20.95;5.03;;;;;;;8.48;100.00;154658.28;4862965;29;20036;-75
2022/05/22 01:47:47;;;;;;;17.58;4.95;;;;;;;8.46;100.00;154654.41;4865825;29;20540;-76
2022/05/22 01:50:14;;;;;;;15.25;5.00;;;;;;;8.47;100.00;154655.69;4866960;29;20051;-77
2022/05/22 01:52:40;;;;;;;16.48;4.40;;;;;;;8.45;100.00;154651.81;4842006;29;20041;-76
2022/05/22 01:55:08;;;;;;;14.88;4.95;;;;;;;8.50;100.00;154663.38;4852362;29;20040;-75
2022/05/22 01:57:34;;;;;;;21.58;4.57;;;;;;;8.46;100.00;154654.41;4844705;29;20105;-76
2022/05/22 02:00:00;;;;;;;18.92;4.85;;;;;;;8.45;100.00;154650.56;4870806;29;20056;-74
2022/05/22 02:02:26;;;;;;;15.32;4.40;;;;;;;8.42;100.00;154644.19;4855939;29;20065;-74
2022/05/22 02:04:55;;;;;;;23.05;4.95;;;;;;;8.45;100.00;154651.81;4850956;29;20096;-76
2022/05/22 02:10:09;;;;;;;17.73;5.13;;;;;;;8.41;100.00;154640.28;4856898;29;20051;-76
2022/05/22 02:12:35;;;;;;;17.30;4.72;;;;;;;8.41;100.00;154640.28;4829532;29;20037;-76
2022/05/22 02:15:07;;;;;;;17.92;4.72;;;;;;;8.41;100.00;154641.53;4872309;29;20050;-75
2022/05/22 02:17:33;;;;;;;11.75;4.30;;;;;;;8.34;100.00;154623.59;4871576;29;20161;-75
2022/05/22 02:19:59;;;;;;;21.20;4.55;;;;;;;8.42;100.00;154644.19;4845349;29;20407;-75
2022/05/22 02:22:43;;;;;;;13.50;4.90;;;;;;;8.39;100.00;154636.41;4871668;29;20053;-75
2022/05/22 02:25:12;;;;;;;18.77;4.97;;;;;;;8.38;100.00;154635.16;4860407;29;20060;-76
2022/05/22 02:27:39;;;;;;;15.70;4.53;;;;;;;8.38;100.00;154635.16;4861965;29;20299;-77
2022/05/22 02:30:06;;;;;;;17.80;5.03;;;;;;;8.34;100.00;154624.91;4859061;29;20113;-77
2022/05/22 02:32:32;;;;;;;17.27;5.40;;;;;;;8.34;100.00;154624.91;4867895;29;20477;-76
2022/05/22 02:34:58;;;;;;;19.77;5.07;;;;;;;8.35;100.00;154626.19;4868189;29;20415;-77
2022/05/22 02:37:23;;;;;;;12.65;4.75;;;;;;;8.35;100.00;154626.19;4851387;29;20048;-77
2022/05/22 02:39:50;;;;;;;20.15;4.93;;;;;;;8.33;100.00;154621.06;4842978;29;20663;-75
2022/05/22 02:42:54;;;;;;;14.40;5.05;;;;;;;8.35;100.00;154627.44;4859140;29;20041;-76
2022/05/22 02:45:27;;;;;;;14.40;5.28;;;;;;;8.35;100.00;154626.19;4857011;29;20037;-76
2022/05/22 02:48:00;;;;;;;15.15;5.75;;;;;;;8.43;100.00;154645.44;4856524;29;20041;-76
2022/05/22 02:50:28;;;;;;;15.15;5.25;;;;;;;8.54;100.00;154674.91;4832772;29;20052;-75
2022/05/22 02:52:59;;;;;;;13.75;4.63;;;;;;;8.61;100.00;154691.56;4858663;29;20034;-75
2022/05/22 02:55:31;;;;;;;16.25;5.32;;;;;;;8.70;100.00;154714.66;4852693;29;20037;-74
2022/05/22 02:57:57;;;;;;;16.15;5.28;;;;;;;8.81;100.00;154740.25;4835737;29;20109;-76
2022/05/22 03:00:26;;;;;;;16.77;5.43;;;;;;;8.92;100.00;154768.44;4867264;29;20143;-76
2022/05/22 03:02:56;;;;;;;17.00;5.70;;;;;;;8.97;100.00;154781.28;4838754;29;20163;-76
2022/05/22 03:05:24;;;;;;;15.40;5.10;;;;;;;9.00;100.00;154787.66;4840073;29;20156;-76
2022/05/22 03:07:49;;;;;;;14.02;5.43;;;;;;;8.99;100.00;154786.41;4845993;29;20045;-75
2022/05/22 03:10:28;;;;;;;14.77;5.03;;;;;;;9.00;100.00;154787.66;4869538;29;20041;-77
2022/05/22 03:12:54;;;;;;;21.67;5.95;;;;;;;9.05;100.00;154801.75;4853333;29;20040;-73
2022/05/22 03:15:26;;;;;;;10.25;4.70;;;;;;;9.00;100.00;154788.94;4857048;29;20045;-76
2022/05/22 03:17:53;;;;;;;15.48;5.35;;;;;;;8.94;100.00;154773.56;4856835;29;20037;-76
2022/05/22 03:20:19;;;;;;;15.90;5.88;;;;;;;9.00;100.00;154788.94;4853445;29;20025;-75
2022/05/22 03:22:45;;;;;;;16.55;5.05;;;;;;;9.02;100.00;154792.78;4855555;29;20051;-75
2022/05/22 03:25:10;;;;;;;16.10;5.32;;;;;;;9.06;100.00;154803.03;4850267;29;20079;-75
2022/05/22 03:27:36;;;;;;;14.13;5.20;;;;;;;9.11;100.00;154817.13;4849492;29;20503;-76
2022/05/22 03:30:04;;;;;;;16.15;4.85;;;;;;;9.15;100.00;154827.44;4847208;29;20032;-75
2022/05/22 03:32:32;;;;;;;13.57;5.88;;;;;;;9.24;100.00;154847.91;4867832;29;20132;-74
2022/05/22 03:34:59;;;;;;;18.08;5.35;;;;;;;9.26;100.00;154854.31;4837880;29;20483;-75
2022/05/22 03:37:26;;;;;;;16.48;5.60;;;;;;;9.31;100.00;154867.13;4855047;29;20041;-76
2022/05/22 03:39:54;;;;;;;14.85;4.47;;;;;;;9.32;100.00;154869.72;4842742;29;20072;-75
2022/05/22 03:42:20;;;;;;;13.15;4.80;;;;;;;9.40;100.00;154888.94;4857470;29;20124;-76
2022/05/22 03:44:45;;;;;;;17.55;4.78;;;;;;;9.45;100.00;154900.47;4856669;29;20106;-75
2022/05/22 03:47:12;;;;;;;14.00;4.25;;;;;;;9.44;100.00;154897.94;4847098;29;20033;-76
2022/05/22 03:50:04;;;;;;;19.33;5.10;;;;;;;9.47;100.00;154905.59;4872816;29;20487;-74
2022/05/22 03:52:33;;;;;;;14.40;4.63;;;;;;;9.45;100.00;154901.72;4870601;29;20089;-74
2022/05/22 03:54:59;;;;;;;19.70;5.05;;;;;;;9.41;100.00;154891.50;4854812;29;20171;-75
2022/05/22 03:57:25;;;;;;;15.48;4.85;;;;;;;9.41;100.00;154890.22;4873082;29;20491;-76
2022/05/22 03:59:50;;;;;;;16.80;4.45;;;;;;;9.42;100.00;154894.06;4844589;29;20523;-75
2022/05/22 04:02:16;;;;;;;15.52;4.72;;;;;;;9.38;100.00;154882.50;4877651;29;20140;-76
2022/05/22 04:04:44;;;;;;;12.85;4.25;;;;;;;9.36;100.00;154878.66;4857922;29;20041;-76
2022/05/22 04:07:18;;;;;;;16.50;4.43;;;;;;;9.29;100.00;154862.03;4857849;29;20048;-76
2022/05/22 04:09:45;;;;;;;21.65;5.07;;;;;;;9.24;100.00;154847.91;4853001;29;20049;-76
2022/05/22 04:12:14;;;;;;;13.38;4.20;;;;;;;9.20;100.00;154838.94;4848913;29;20037;-76
2022/05/22 04:14:44;;;;;;;11.73;3.88;;;;;;;9.18;100.00;154833.81;4869971;29;20045;-76
2022/05/22 04:17:11;;;;;;;19.63;4.68;;;;;;;9.15;100.00;154827.44;4856926;29;20041;-76
2022/05/22 04:19:38;;;;;;;16.75;5.32;;;;;;;9.19;100.00;154835.09;4869902;29;20492;-74
2022/05/22 04:22:06;;;;;;;12.48;4.38;;;;;;;9.13;100.00;154822.25;4858865;29;20033;-76
2022/05/22 04:27:19;;;;;;;16.25;5.43;;;;;;;9.38;100.00;154882.50;4855355;29;20036;-76
2022/05/22 04:29:45;;;;;;;15.00;4.45;;;;;;;9.45;100.00;154900.47;4856171;29;20045;-75
2022/05/22 04:32:11;;;;;;;18.27;4.60;;;;;;;9.48;100.00;154908.19;4855965;29;20699;-75
2022/05/22 04:34:49;;;;;;;9.52;4.78;;;;;;;9.53;100.00;154920.97;4853114;29;20052;-75
2022/05/22 04:37:16;;;;;;;15.52;5.65;;;;;;;9.72;100.00;154968.44;4851573;29;20468;-74
2022/05/22 04:39:43;;;;;;;17.48;5.47;;;;;;;9.86;100.00;155004.31;4873236;29;20048;-76
2022/05/22 04:42:09;;;;;;;17.70;5.05;;;;;;;10.02;100.00;155042.78;4875874;29;20041;-73
2022/05/22 04:44:35;;;;;;;18.60;5.35;;;;;;;10.24;100.00;155097.94;4840331;29;20045;-77
2022/05/22 04:47:16;;;;;;;17.48;4.65;;;;;;;10.42;100.00;155144.19;4872598;29;20057;-77
2022/05/22 04:49:42;;;;;;;18.95;4.85;;;;;;;10.48;100.00;155159.56;4855862;29;20045;-76
2022/05/22 04:52:07;;;;;;;19.60;4.88;;;;;;;10.56;100.00;155178.81;4846545;29;20952;-76
2022/05/22 04:54:33;;;;;;;16.13;4.88;;;;;;;10.64;100.00;155198.03;4840288;29;20079;-75
2022/05/22 04:57:01;;;;;;;18.58;4.40;;;;;;;10.73;100.00;155221.16;4842960;29;20029;-75
2022/05/22 04:59:28;;;;;;;18.05;4.75;;;;;;;10.77;100.00;155230.13;4839445;29;20132;-79
2022/05/22 05:01:54;;;;;;;16.85;4.97;;;;;;;10.94;100.00;155272.47;4855515;29;20036;-76
2022/05/22 05:04:25;;;;;;;18.40;4.57;;;;;;;10.99;100.00;155285.31;4857230;29;20045;-79
2022/05/22 05:07:06;;;;;;;19.35;4.82;;;;;;;11.06;100.00;155303.28;4863521;29;20045;-75
2022/05/22 05:09:54;;;;;;;18.40;4.60;;;;;;;11.07;100.00;155307.09;4870268;29;20431;-77
2022/05/22 05:12:42;;;;;;;18.75;4.30;;;;;;;11.14;100.00;155322.53;4860968;29;20048;-75
2022/05/22 05:15:11;;;;;;;17.55;3.95;;;;;;;11.18;100.00;155334.06;4852286;29;20036;-76
2022/05/22 05:17:40;;;;;;;17.35;4.15;;;;;;;11.25;100.00;155352.06;4856739;29;20037;-76
2022/05/22 05:20:07;;;;;;;15.25;4.05;;;;;;;11.30;100.00;155364.91;4850000;29;20064;-75
2022/05/22 05:22:46;;;;;;;17.65;4.65;;;;;;;11.33;100.00;155371.31;4854946;29;20132;-76
2022/05/22 05:25:19;;;;;;;12.52;4.15;;;;;;;11.36;100.00;155379.00;4843700;29;20092;-77
2022/05/22 05:27:45;;;;;;;15.30;5.68;;;;;;;11.31;100.00;155366.16;4859220;29;20040;-77
2022/05/22 05:30:17;;;;;;;21.05;6.30;;;;;;;11.27;100.00;155355.91;4854545;29;20040;-75
2022/05/22 05:32:46;;;;;;;16.15;4.63;;;;;;;11.25;100.00;155352.06;4864906;29;20037;-76
2022/05/22 05:35:31;;;;;;;16.00;4.72;;;;;;;11.30;100.00;155363.56;4868781;29;20037;-76
2022/05/22 05:37:59;;;;;;;19.10;5.38;;;;;;;11.20;100.00;155339.19;4842021;29;20086;-76
2022/05/22 05:40:25;;;;;;;17.15;4.40;;;;;;;11.22;100.00;155344.34;4863847;29;20144;-75
2022/05/22 05:42:52;;;;;;;17.67;4.60;;;;;;;11.26;100.00;155353.31;4859345;29;20073;-76
2022/05/22 05:45:18;;;;;;;19.08;4.57;;;;;;;11.29;100.00;155361.03;4857864;29;20045;-75
2022/05/22 05:47:53;;;;;;;16.73;4.63;;;;;;;11.32;100.00;155367.44;4874474;29;20090;-75
2022/05/22 05:50:31;;;;;;;19.23;4.90;;;;;;;11.40;100.00;155389.28;4880475;29;20041;-75
2022/05/22 05:53:06;;;;;;;15.63;4.45;;;;;;;11.46;100.00;155404.66;4868204;29;20033;-75
2022/05/22 05:56:05;;;;;;;16.92;5.05;;;;;;;11.52;100.00;155417.53;4849419;29;20629;-75
2022/05/22 05:58:49;;;;;;;20.83;4.95;;;;;;;11.50;100.00;155414.94;4855704;29;20038;-77
2022/05/22 06:01:33;;;;;;;17.98;4.47;;;;;;;11.59;100.00;155436.78;4851617;29;20040;-75
2022/05/22 06:04:01;;;;;;;18.33;4.88;;;;;;;11.59;100.00;155435.50;4853166;29;20033;-76
2022/05/22 06:06:28;;;;;;;15.35;4.35;;;;;;;11.67;100.00;155456.03;4871123;29;20037;-76
2022/05/22 06:08:57;;;;;;;15.27;4.68;;;;;;;11.75;100.00;155476.53;4843239;29;20545;-75
2022/05/22 06:11:26;;;;;;;14.80;4.75;;;;;;;11.85;100.00;155500.97;4871183;29;20064;-76
2022/05/22 06:13:51;;;;;;;16.08;4.85;;;;;;;12.02;100.00;155543.41;4857066;29;20757;-75
2022/05/22 06:16:17;;;;;;;16.25;4.60;;;;;;;12.04;100.00;155549.81;4840942;29;20043;-75
2022/05/22 06:18:56;;;;;;;15.43;4.63;;;;;;;12.09;100.00;155561.34;4842290;29;20135;-75
2022/05/22 06:21:23;;;;;;;13.45;3.80;;;;;;;12.06;100.00;155554.94;4856959;29;20047;-76
2022/05/22 06:23:50;;;;;;;13.85;4.38;;;;;;;12.16;100.00;155578.06;4859247;29;20037;-74
2022/05/22 06:26:34;;;;;;;13.30;4.15;;;;;;;12.26;100.00;155603.72;4871614;29;20037;-76
2022/05/22 06:29:37;;;;;;;14.65;4.32;;;;;;;12.29;100.00;155610.19;4863495;29;20043;-76
2022/05/22 06:32:20;;;;;;;14.02;4.60;;;;;;;12.31;100.00;155615.31;4856332;29;20032;-75
2022/05/22 06:35:12;;;;;;;15.43;4.68;;;;;;;12.37;100.00;155631.97;4853602;29;20575;-75
2022/05/22 06:37:45;;;;;;;19.48;5.95;;;;;;;12.43;100.00;155647.44;4853475;29;20048;-75
2022/05/22 06:40:23;;;;;;;16.85;5.20;;;;;;;12.49;100.00;155660.25;4866491;29;20041;-76
2022/05/22 06:43:20;;;;;;;13.10;4.25;;;;;;;12.60;100.00;155689.81;4856459;29;20064;-75
2022/05/22 06:45:55;;;;;;;16.77;4.55;;;;;;;12.69;100.00;155710.34;4856457;29;20033;-75
2022/05/22 06:48:39;;;;;;;14.02;4.20;;;;;;;12.76;100.00;155728.34;4867472;29;20053;-76
2022/05/22 06:51:25;;;;;;;13.63;3.88;;;;;;;12.78;100.00;155733.47;4836507;29;20037;-74
2022/05/22 06:53:57;;;;;;;17.58;4.30;;;;;;;12.91;100.00;155765.59;4864278;29;20515;-76
2022/05/22 06:56:41;;;;;;;15.20;4.75;;;;;;;12.93;100.00;155772.00;4868397;29;20060;-75
2022/05/22 06:59:30;;;;;;;13.65;3.53;;;;;;;12.95;100.00;155775.88;4858942;29;20049;-76
2022/05/22 07:02:15;;;;;;;13.88;4.10;;;;;;;13.16;100.00;155829.81;4854278;29;20033;-76
2022/05/22 07:05:20;;;;;;;15.05;4.03;;;;;;;13.14;100.00;155824.69;4846046;29;20091;-77
2022/05/22 07:07:57;;;;;;;18.80;4.50;;;;;;;13.15;100.00;155827.28;4855390;29;20037;-74
2022/05/22 07:13:54;;;;;;;16.80;4.28;;;;;;;13.38;100.00;155885.16;4868348;29;20048;-75
2022/05/22 07:16:38;;;;;;;14.10;4.60;;;;;;;13.38;100.00;155885.16;4872239;29;20045;-76
2022/05/22 07:19:12;;;;;;;16.02;3.88;;;;;;;13.39;100.00;155886.41;4842302;29;20044;-76
2022/05/22 07:22:06;;;;;;;16.50;4.28;;;;;;;13.66;100.00;155953.28;4862931;29;20495;-76
2022/05/22 07:24:52;;;;;;;15.27;4.50;;;;;;;13.77;100.00;155981.56;4856734;29;20041;-74
2022/05/22 07:27:26;;;;;;;22.40;4.20;;;;;;;13.93;100.00;156021.41;4855718;29;20053;-75
2022/05/22 07:30:04;;;;;;;15.82;3.88;;;;;;;13.82;100.00;155995.72;4842538;29;20041;-77
2022/05/22 07:32:39;;;;;;;14.75;3.60;;;;;;;13.71;100.00;155966.13;4854453;29;20048;-76
2022/05/22 07:35:24;;;;;;;14.73;3.80;;;;;;;13.90;100.00;156013.69;4852840;29;20048;-77
2022/05/22 07:38:07;;;;;;;15.90;3.40;;;;;;;14.04;100.00;156048.41;4874125;29;20068;-78
2022/05/22 07:41:05;;;;;;;14.48;3.40;;;;;;;14.16;100.00;156080.53;4863930;29;20139;-74
2022/05/22 07:43:47;;;;;;;15.57;3.08;;;;;;;14.34;100.00;156124.28;4853458;29;20041;-75
2022/05/22 07:46:16;;;;;;;11.27;2.67;;;;;;;14.41;100.00;156143.56;4857322;29;20036;-76
2022/05/22 07:48:52;;;;;;;8.40;2.22;;;;;;;14.50;96.99;156164.13;4856651;29;20044;-76
2022/05/22 07:51:41;;;;;;;13.70;2.72;;;;;;;14.39;96.60;156137.09;4856423;29;20144;-76
2022/05/22 07:54:26;;;;;;;12.52;2.17;;;;;;;14.28;98.09;156108.81;4855744;29;20669;-76
2022/05/22 07:57:21;;;;;;;7.05;2.08;;;;;;;14.53;95.28;156173.13;4828540;29;20046;-75
2022/05/22 08:00:03;;;;;;;10.25;2.15;;;;;;;14.90;94.58;156265.81;4840708;29;20149;-78
2022/05/22 08:02:41;;;;;;;10.98;2.38;;;;;;;14.98;93.69;156285.09;4875337;29;20043;-73
2022/05/22 08:05:08;;;;;;;6.25;1.73;;;;;;;14.90;92.67;156264.47;4855494;29;20500;-76
2022/05/22 08:07:41;;;;;;;9.88;2.15;;;;;;;14.82;92.13;156243.91;4865160;29;20625;-75
2022/05/22 08:10:27;;;;;;;9.80;2.15;;;;;;;14.74;93.55;156224.63;4852241;29;20163;-78
2022/05/22 08:12:59;;;;;;;9.95;1.77;;;;;;;14.58;95.48;156184.78;4853944;29;20809;-77
2022/05/22 08:15:32;;;;;;;9.40;1.95;;;;;;;14.38;95.46;156135.84;4852641;29;20444;-74
2022/05/22 08:18:10;;;;;;;11.18;2.00;;;;;;;14.16;94.99;156080.53;4859490;29;20049;-76
2022/05/22 08:20:38;;;;;;;9.75;2.13;;;;;;;14.39;93.01;156137.09;4847687;29;20037;-74
2022/05/22 08:23:11;;;;;;;7.22;1.33;;;;;;;15.00;90.41;156290.25;4855642;29;20029;-75
2022/05/22 08:25:42;;;;;;;8.20;1.75;;;;;;;15.09;81.03;156313.41;4858593;29;20140;-75
2022/05/22 08:28:10;;;;;;;8.60;1.50;;;;;;;15.54;83.10;156426.63;4848809;29;20035;-75
2022/05/22 08:30:36;;;;;;;4.93;1.40;;;;;;;16.01;79.98;156543.81;4873844;29;20548;-74
2022/05/22 08:33:03;;;;;;;7.50;1.10;;;;;;;15.94;84.34;156527.06;4862919;29;20040;-73
2022/05/22 08:35:32;;;;;;;5.45;1.38;;;;;;;15.71;85.46;156467.81;4860980;29;20049;-74
2022/05/22 08:37:59;;;;;;;9.07;1.70;;;;;;;15.13;88.14;156323.69;4853045;29;20045;-74
2022/05/22 08:40:28;;;;;;;9.55;1.63;;;;;;;14.64;93.75;156200.19;4850874;29;20047;-75
2022/05/22 08:43:03;;;;;;;11.60;1.80;;;;;;;14.30;94.95;156114.00;4868350;29;20033;-76
2022/05/22 08:45:37;;;;;;;7.00;1.50;;;;;;;14.23;92.84;156097.25;4863134;29;20124;-79
2022/05/22 08:48:26;;;;;;;6.63;1.50;;;;;;;14.68;89.23;156210.47;4841748;29;20059;-76
2022/05/22 08:50:56;;;;;;;6.10;1.52;;;;;;;15.47;85.60;156407.34;4875177;29;20044;-76
2022/05/22 08:53:28;;;;;;;7.07;1.42;;;;;;;16.17;80.62;156583.69;4844631;29;20333;-74
2022/05/22 08:58:57;;;;;;;5.57;1.20;;;;;;;16.91;76.65;156770.47;4871006;29;20137;-77
2022/05/22 09:01:44;;;;;;;6.90;1.20;;;;;;;17.11;73.06;156819.38;4855828;29;20041;-76
2022/05/22 09:04:18;;;;;;;4.97;1.33;;;;;;;17.45;69.99;156905.69;4816119;29;20047;-77
2022/05/22 09:07:05;;;;;;;10.68;1.30;;;;;;;17.35;73.66;156879.94;4873670;29;20037;-76
2022/05/22 09:09:35;;;;;;;5.63;1.27;;;;;;;16.77;76.35;156734.34;4858363;29;20041;-75
2022/05/22 09:12:16;;;;;;;9.32;1.33;;;;;;;16.34;75.27;156627.44;4869163;29;20132;-75
2022/05/22 09:14:54;;;;;;;4.50;1.30;;;;;;;16.76;76.06;156730.47;4861267;29;20041;-76
2022/05/22 09:17:31;;;;;;;9.25;1.30;;;;;;;16.93;74.36;156775.63;4870521;29;20073;-75
2022/05/22 09:20:35;;;;;;;8.55;1.48;;;;;;;17.43;77.52;156899.25;4846501;29;20039;-76
2022/05/22 09:23:42;;;;;;;7.75;1.10;;;;;;;17.81;79.02;156995.88;4818276;29;20092;-75
2022/05/22 09:26:30;;;;;;;3.65;1.15;;;;;;;17.74;67.83;156977.81;4856416;29;20048;-77
2022/05/22 09:29:20;;;;;;;5.82;1.10;;;;;;;17.83;71.16;156999.75;4853934;29;20041;-77
2022/05/22 09:31:57;;;;;;;4.63;1.00;;;;;;;17.86;70.35;157008.81;4849297;29;20387;-77
2022/05/22 09:34:49;;;;;;;11.27;1.33;;;;;;;17.85;71.12;157004.94;4858655;29;20427;-75
2022/05/22 09:37:20;;;;;;;3.63;1.00;;;;;;;17.74;67.13;156977.81;4866773;29;20033;-76
2022/05/22 09:39:57;;;;;;;4.15;0.73;;;;;;;17.66;62.52;156958.50;4857170;29;20097;-75
2022/05/22 09:42:48;;;;;;;7.07;0.80;;;;;;;17.44;63.57;156903.13;4857592;29;20041;-76
2022/05/22 09:45:19;;;;;;;6.75;0.90;;;;;;;17.69;66.18;156966.25;4871381;29;20047;-74
2022/05/22 09:48:00;;;;;;;7.20;0.88;;;;;;;18.32;64.06;157122.22;4868270;29;20064;-76
2022/05/22 09:50:45;;;;;;;5.05;0.77;;;;;;;18.46;64.04;157159.59;4876178;29;20148;-75
2022/05/22 09:53:40;;;;;;;6.57;1.08;;;;;;;17.91;66.36;157020.38;4862329;29;20495;-76
2022/05/22 09:56:23;;;;;;;4.60;1.10;;;;;;;17.92;65.00;157023.00;4853622;29;20036;-74
2022/05/22 09:59:24;;;;;;;6.25;1.20;;;;;;;17.60;66.58;156941.78;4885207;29;20041;-77
2022/05/22 10:01:54;;;;;;;8.05;1.38;;;;;;;17.30;69.17;156868.31;4847076;29;20522;-76
2022/05/22 10:04:53;;;;;;;5.18;1.00;;;;;;;16.85;72.20;156754.97;4882647;29;20116;-75
2022/05/22 10:07:33;;;;;;;7.72;1.10;;;;;;;16.51;74.14;156669.94;4854385;29;20052;-75
2022/05/22 10:10:27;;;;;;;4.47;0.85;;;;;;;16.53;72.39;156673.81;4852922;29;20049;-76
2022/05/22 10:13:17;;;;;;;3.63;1.00;;;;;;;17.37;70.49;156885.09;4871796;29;20043;-75
2022/05/22 10:15:52;;;;;;;4.85;0.85;;;;;;;18.23;63.53;157100.28;4868319;29;20155;-75
2022/05/22 10:18:48;;;;;;;3.50;0.70;;;;;;;18.37;64.05;157135.13;4856085;29;20037;-76
2022/05/22 10:21:26;;;;;;;6.55;1.00;;;;;;;17.99;67.37;157039.72;4871537;29;20037;-77
2022/05/22 10:24:14;;;;;;;3.95;0.80;;;;;;;17.58;63.98;156937.91;4836917;29;20059;-75
2022/05/22 10:26:46;;;;;;;4.22;1.00;;;;;;;18.07;67.30;157060.38;4870985;29;20978;-76
2022/05/22 10:29:54;;;;;;;3.08;0.73;;;;;;;18.74;62.59;157227.91;4870847;29;20040;-77
2022/05/22 10:32:28;;;;;;;5.57;1.10;;;;;;;19.10;69.10;157318.22;4820887;29;20038;-76
2022/05/22 10:35:04;;;;;;;7.70;1.20;;;;;;;19.09;60.18;157315.66;4845096;29;20049;-77
2022/05/22 10:37:59;;;;;;;2.50;0.70;;;;;;;19.34;58.58;157380.09;4868329;29;20519;-76
2022/05/22 10:40:26;;;;;;;5.05;1.02;;;;;;;19.34;64.98;157380.09;4841827;29;20085;-76
2022/05/22 10:42:55;;;;;;;3.42;0.90;;;;;;;18.27;59.81;157111.91;4865757;29;20038;-77
2022/05/22 10:45:35;;;;;;;4.18;0.90;;;;;;;17.51;63.58;156921.13;4843827;29;20043;-77
2022/05/22 10:48:23;;;;;;;3.47;0.80;;;;;;;17.07;67.16;156810.38;4852609;29;20507;-74
2022/05/22 10:50:53;;;;;;;5.03;0.85;;;;;;;17.71;66.08;156970.13;4851268;29;20467;-75
2022/05/22 10:53:33;;;;;;;4.00;0.80;;;;;;;17.74;66.87;156977.81;4842001;29;20130;-75
2022/05/22 10:56:13;;;;;;;4.65;0.77;;;;;;;18.29;60.11;157115.78;4836631;29;20041;-76
2022/05/22 10:58:48;;;;;;;1.63;0.50;;;;;;;18.80;58.23;157244.75;4846084;29;20141;-74
2022/05/22 11:01:20;;;;;;;5.40;0.60;;;;;;;18.96;55.30;157284.69;4835620;29;20822;-75
2022/05/22 11:03:47;;;;;;;;;;;;;;;19.20;54.72;157344.03;4850266;29;20045;-78
2022/05/22 11:06:22;;;;;;;2.58;0.70;;;;;;;19.59;57.10;157442.00;4870760;29;20409;-76
2022/05/22 11:08:51;;;;;;;2.60;0.85;;;;;;;19.72;51.40;157474.25;4851581;29;20054;-75
2022/05/22 11:11:23;;;;;;;3.63;0.75;;;;;;;19.96;50.22;157534.94;4874849;29;20050;-74
2022/05/22 11:13:51;;;;;;;2.97;0.73;;;;;;;20.05;53.10;157556.88;4867602;29;20045;-74
2022/05/22 11:16:25;;;;;;;2.42;0.80;;;;;;;19.34;50.43;157380.09;4865918;29;20407;-75
2022/05/22 11:19:07;;;;;;;3.55;0.68;;;;;;;19.42;54.87;157400.75;4869158;29;20045;-76
2022/05/22 11:22:00;;;;;;;1.98;0.47;;;;;;;20.38;55.75;157640.72;4840360;29;20052;-76
2022/05/22 11:24:48;;;;;;;3.20;0.80;;;;;;;20.18;51.20;157590.44;4858725;29;20057;-77
2022/05/22 11:27:20;;;;;;;3.20;0.47;;;;;;;19.42;53.17;157400.75;4871271;29;20029;-75
2022/05/22 11:30:01;;;;;;;3.70;0.65;;;;;;;18.80;55.39;157243.41;4869815;29;20033;-76
2022/05/22 11:32:53;;;;;;;3.70;0.80;;;;;;;19.32;54.84;157374.94;4868229;29;20093;-77
2022/05/22 11:35:30;;;;;;;6.80;1.20;;;;;;;19.90;51.46;157520.75;4854256;29;20044;-75
2022/05/22 11:37:59;;;;;;;3.80;1.00;;;;;;;20.28;55.07;157614.94;4855324;29;20084;-76
2022/05/22 11:40:32;;;;;;;2.40;0.70;;;;;;;20.69;50.92;157719.50;4852124;29;20049;-75
2022/05/22 11:43:05;;;;;;;3.15;0.77;;;;;;;20.89;50.04;157769.84;4832002;29;20045;-76
2022/05/22 11:46:03;;;;;;;2.28;0.70;;;;;;;21.25;50.34;157858.88;4852900;29;20546;-76
2022/05/22 11:48:32;;;;;;;4.85;0.70;;;;;;;21.14;47.30;157833.09;4812010;29;20138;-76
2022/05/22 11:51:23;;;;;;;3.47;0.80;;;;;;;20.97;48.08;157789.22;4866141;29;20051;-78
2022/05/22 11:54:05;;;;;;;3.38;1.02;;;;;;;21.43;51.42;157905.38;4854860;29;20045;-74
2022/05/22 11:56:55;;;;;;;5.80;1.20;;;;;;;21.09;46.75;157820.16;4868973;29;20148;-75
2022/05/22 11:59:51;;;;;;;6.30;1.23;;;;;;;20.58;49.51;157692.34;4836382;29;20041;-77
2022/05/22 12:02:35;;;;;;;7.85;1.15;;;;;;;19.90;53.24;157519.47;4870726;29;20032;-75